createdAt,value
2023-03-12T00:00:24.308Z,99.99
2023-03-12T00:01:24.303Z,99.99
2023-03-12T00:02:24.318Z,99.99
2023-03-12T00:03:24.399Z,99.99
2023-03-12T00:04:24.282Z,99.99
2023-03-12T00:05:24.272Z,99.99
2023-03-12T00:06:24.256Z,99.99
2023-03-12T00:07:24.258Z,99.99
2023-03-12T00:08:24.272Z,99.99
2023-03-12T00:09:24.232Z,99.99
2023-03-12T00:10:24.235Z,99.99
2023-03-12T00:11:24.223Z,99.99
2023-03-12T00:12:24.227Z,99.99
2023-03-12T00:13:24.231Z,99.99
2023-03-12T00:14:24.196Z,99.99
2023-03-12T00:15:24.196Z,99.99
2023-03-12T00:16:24.249Z,99.99
2023-03-12T00:17:24.176Z,99.99
2023-03-12T00:18:24.202Z,99.99
2023-03-12T00:19:24.169Z,99.99
2023-03-12T00:20:24.159Z,99.99
2023-03-12T00:21:24.145Z,99.99
2023-03-12T00:22:24.142Z,99.99
2023-03-12T00:23:24.154Z,99.99
2023-03-12T00:24:24.151Z,99.99
2023-03-12T00:25:24.126Z,99.99
2023-03-12T00:26:24.112Z,99.99
2023-03-12T00:27:24.106Z,99.99
2023-03-12T00:28:24.119Z,99.99
2023-03-12T00:29:24.089Z,99.99
2023-03-12T00:30:24.087Z,99.99
2023-03-12T00:31:24.140Z,99.99
2023-03-12T00:32:24.111Z,99.99
2023-03-12T00:33:24.090Z,99.99
2023-03-12T00:34:24.046Z,99.99
2023-03-12T00:35:24.143Z,99.99
2023-03-12T00:36:24.023Z,99.99
2023-03-12T00:37:24.015Z,99.99
2023-03-12T00:38:24.049Z,99.99
2023-03-12T00:39:24.026Z,99.99
2023-03-12T00:40:23.996Z,99.99
2023-03-12T00:41:23.993Z,99.99
2023-03-12T00:42:23.985Z,99.99
2023-03-12T00:43:23.999Z,99.99
2023-03-12T00:44:23.966Z,99.99
2023-03-12T00:45:23.959Z,99.91
2023-03-12T00:46:23.983Z,99.99
2023-03-12T00:47:23.971Z,99.99
2023-03-12T00:48:23.972Z,99.99
2023-03-12T00:49:23.929Z,99.99
2023-03-12T00:50:23.921Z,99.99
2023-03-12T00:51:23.922Z,99.99
2023-03-12T00:52:23.917Z,99.99
2023-03-12T00:53:23.932Z,99.81
2023-03-12T00:54:23.898Z,99.70
2023-03-12T00:55:23.900Z,99.49
2023-03-12T00:56:23.883Z,99.39
2023-03-12T00:57:23.882Z,99.39
2023-03-12T00:58:23.892Z,99.70
2023-03-12T00:59:23.861Z,99.60
2023-03-12T01:00:23.936Z,99.99
2023-03-12T01:01:23.866Z,99.18
2023-03-12T01:02:23.834Z,99.07
2023-03-12T01:03:23.871Z,99.07
2023-03-12T01:04:23.932Z,99.81
2023-03-12T01:05:23.814Z,99.49
2023-03-12T01:06:23.812Z,99.49
2023-03-12T01:07:23.811Z,99.70
2023-03-12T01:08:23.823Z,99.60
2023-03-12T01:09:23.788Z,99.64
2023-03-12T01:10:23.798Z,99.91
2023-03-12T01:11:23.775Z,99.18
2023-03-12T01:12:23.765Z,99.28
2023-03-12T01:13:23.778Z,99.18
2023-03-12T01:14:23.751Z,99.70
2023-03-12T01:15:23.746Z,99.91
2023-03-12T01:16:23.800Z,99.76
2023-03-12T01:17:23.725Z,99.60
2023-03-12T01:18:23.748Z,99.81
2023-03-12T01:19:23.834Z,99.39
2023-03-12T01:20:23.709Z,99.60
2023-03-12T01:21:23.693Z,99.49
2023-03-12T01:22:24.688Z,99.91
2023-03-12T01:23:23.707Z,99.81
2023-03-12T01:24:23.676Z,99.70
2023-03-12T01:25:23.670Z,99.66
2023-03-12T01:26:23.658Z,99.66
2023-03-12T01:27:23.660Z,99.70
2023-03-12T01:28:23.681Z,99.99
2023-03-12T01:29:23.640Z,99.98
2023-03-12T01:30:23.674Z,99.99
2023-03-12T01:31:23.664Z,99.13
2023-03-12T01:32:23.675Z,99.66
2023-03-12T01:33:23.645Z,99.76
2023-03-12T01:34:23.613Z,99.19
2023-03-12T01:35:23.635Z,99.13
2023-03-12T01:36:23.634Z,98.98
2023-03-12T01:37:23.583Z,99.24
2023-03-12T01:38:23.601Z,99.19
2023-03-12T01:39:23.568Z,99.08
2023-03-12T01:40:23.559Z,99.76
2023-03-12T01:41:23.560Z,99.30
2023-03-12T01:42:23.556Z,99.30
2023-03-12T01:43:23.557Z,99.93
2023-03-12T01:44:23.529Z,98.98
2023-03-12T01:45:23.526Z,98.98
2023-03-12T01:46:23.512Z,98.98
2023-03-12T01:47:23.499Z,99.30
2023-03-12T01:48:23.520Z,98.88
2023-03-12T01:49:23.486Z,98.88
2023-03-12T01:50:23.481Z,98.98
2023-03-12T01:51:23.474Z,98.98
2023-03-12T01:52:23.459Z,98.62
2023-03-12T01:53:23.485Z,98.94
2023-03-12T01:54:23.452Z,99.08
2023-03-12T01:55:23.448Z,98.94
2023-03-12T01:56:23.435Z,98.83
2023-03-12T01:57:23.425Z,98.72
2023-03-12T01:58:23.424Z,99.19
2023-03-12T01:59:23.447Z,98.46
2023-03-12T02:00:23.420Z,98.41
2023-03-12T02:01:23.447Z,98.30
2023-03-12T02:02:23.386Z,98.41
2023-03-12T02:03:23.385Z,98.41
2023-03-12T02:04:23.513Z,98.41
2023-03-12T02:05:23.381Z,98.35
2023-03-12T02:06:23.367Z,98.72
2023-03-12T02:07:23.353Z,98.72
2023-03-12T02:08:23.351Z,98.83
2023-03-12T02:09:23.365Z,98.77
2023-03-12T02:10:23.340Z,98.56
2023-03-12T02:11:23.322Z,98.77
2023-03-12T02:12:23.304Z,98.30
2023-03-12T02:13:24.318Z,98.30
2023-03-12T02:14:23.325Z,98.52
2023-03-12T02:15:23.290Z,98.66
2023-03-12T02:16:23.330Z,98.20
2023-03-12T02:17:23.276Z,97.93
2023-03-12T02:18:23.269Z,98.72
2023-03-12T02:19:23.282Z,98.72
2023-03-12T02:20:23.255Z,98.10
2023-03-12T02:21:23.244Z,98.62
2023-03-12T02:22:23.241Z,98.62
2023-03-12T02:23:24.234Z,98.41
2023-03-12T02:24:23.256Z,98.62
2023-03-12T02:25:23.216Z,98.68
2023-03-12T02:26:23.216Z,98.58
2023-03-12T02:27:23.206Z,98.16
2023-03-12T02:28:23.195Z,97.88
2023-03-12T02:29:23.220Z,98.20
2023-03-12T02:30:23.175Z,98.36
2023-03-12T02:31:23.224Z,98.30
2023-03-12T02:32:23.256Z,98.36
2023-03-12T02:33:23.167Z,97.99
2023-03-12T02:34:23.186Z,98.10
2023-03-12T02:35:23.135Z,98.16
2023-03-12T02:36:23.138Z,98.10
2023-03-12T02:37:23.126Z,98.16
2023-03-12T02:38:23.115Z,98.47
2023-03-12T02:39:23.129Z,98.05
2023-03-12T02:40:23.102Z,98.05
2023-03-12T02:41:23.103Z,98.41
2023-03-12T02:42:23.089Z,98.30
2023-03-12T02:43:23.086Z,98.58
2023-03-12T02:44:23.107Z,98.62
2023-03-12T02:45:23.068Z,97.99
2023-03-12T02:46:23.145Z,97.67
2023-03-12T02:47:23.056Z,98.77
2023-03-12T02:48:23.047Z,97.99
2023-03-12T02:49:23.073Z,98.62
2023-03-12T02:50:23.038Z,98.77
2023-03-12T02:51:23.021Z,98.41
2023-03-12T02:52:23.030Z,98.30
2023-03-12T02:53:23.012Z,97.93
2023-03-12T02:54:23.032Z,98.35
2023-03-12T02:55:22.998Z,98.56
2023-03-12T02:56:22.997Z,98.72
2023-03-12T02:57:22.975Z,98.77
2023-03-12T02:58:22.970Z,98.62
2023-03-12T02:59:22.999Z,98.72
2023-03-12T03:00:22.952Z,98.83
2023-03-12T03:01:23.033Z,98.94
2023-03-12T03:02:22.937Z,98.94
2023-03-12T03:03:22.932Z,98.52
2023-03-12T03:04:22.981Z,98.30
2023-03-12T03:05:22.913Z,98.41
2023-03-12T03:06:22.914Z,98.26
2023-03-12T03:07:22.900Z,98.30
2023-03-12T03:08:22.905Z,98.52
2023-03-12T03:09:22.913Z,98.89
2023-03-12T03:10:22.876Z,98.26
2023-03-12T03:11:22.873Z,98.58
2023-03-12T03:12:22.870Z,98.36
2023-03-12T03:13:22.853Z,98.58
2023-03-12T03:14:22.872Z,98.58
2023-03-12T03:15:22.838Z,98.79
2023-03-12T03:16:22.838Z,98.58
2023-03-12T03:17:22.832Z,98.68
2023-03-12T03:18:22.823Z,98.89
2023-03-12T03:19:22.838Z,98.79
2023-03-12T03:20:22.811Z,98.47
2023-03-12T03:21:22.823Z,98.05
2023-03-12T03:22:22.819Z,98.16
2023-03-12T03:23:22.790Z,98.16
2023-03-12T03:24:22.813Z,97.94
2023-03-12T03:25:22.774Z,98.26
2023-03-12T03:26:22.794Z,98.16
2023-03-12T03:27:22.759Z,98.26
2023-03-12T03:28:22.759Z,98.16
2023-03-12T03:29:22.790Z,98.26
2023-03-12T03:30:22.754Z,98.52
2023-03-12T03:31:22.777Z,98.30
2023-03-12T03:32:22.785Z,98.41
2023-03-12T03:33:22.721Z,98.20
2023-03-12T03:34:22.730Z,98.20
2023-03-12T03:35:22.706Z,98.20
2023-03-12T03:36:22.691Z,98.62
2023-03-12T03:37:22.688Z,98.72
2023-03-12T03:38:22.682Z,98.30
2023-03-12T03:39:22.700Z,98.52
2023-03-12T03:40:22.661Z,98.72
2023-03-12T03:41:22.652Z,98.62
2023-03-12T03:42:22.651Z,98.30
2023-03-12T03:43:22.647Z,98.52
2023-03-12T03:44:22.663Z,98.24
2023-03-12T03:45:22.630Z,98.14
2023-03-12T03:46:22.650Z,98.35
2023-03-12T03:47:23.603Z,98.14
2023-03-12T03:48:22.598Z,98.24
2023-03-12T03:49:22.626Z,98.77
2023-03-12T03:50:22.592Z,98.77
2023-03-12T03:51:22.580Z,98.77
2023-03-12T03:52:22.571Z,99.08
2023-03-12T03:53:22.574Z,98.66
2023-03-12T03:54:22.566Z,98.77
2023-03-12T03:55:22.581Z,99.30
2023-03-12T03:56:22.543Z,99.19
2023-03-12T03:57:22.546Z,98.98
2023-03-12T03:58:22.532Z,99.78
2023-03-12T03:59:22.525Z,99.88
2023-03-12T04:00:22.551Z,99.15
2023-03-12T04:01:22.505Z,99.78
2023-03-12T04:02:22.501Z,99.72
2023-03-12T04:03:22.530Z,99.67
2023-03-12T04:04:22.487Z,99.57
2023-03-12T04:05:22.520Z,99.36
2023-03-12T04:06:22.488Z,99.61
2023-03-12T04:07:22.471Z,99.57
2023-03-12T04:08:22.448Z,99.57
2023-03-12T04:09:23.449Z,99.82
2023-03-12T04:10:22.474Z,99.84
2023-03-12T04:11:22.442Z,99.73
2023-03-12T04:12:22.433Z,99.78
2023-03-12T04:13:22.422Z,99.78
2023-03-12T04:14:22.419Z,99.67
2023-03-12T04:15:22.434Z,99.57
2023-03-12T04:16:22.433Z,99.57
2023-03-12T04:17:22.396Z,99.46
2023-03-12T04:18:22.451Z,99.67
2023-03-12T04:19:22.386Z,99.36
2023-03-12T04:20:22.399Z,99.57
2023-03-12T04:21:22.366Z,99.57
2023-03-12T04:22:22.342Z,99.67
2023-03-12T04:23:23.344Z,99.46
2023-03-12T04:24:22.350Z,99.25
2023-03-12T04:25:22.369Z,99.57
2023-03-12T04:26:22.324Z,99.57
2023-03-12T04:27:22.321Z,99.57
2023-03-12T04:28:22.310Z,99.67
2023-03-12T04:29:22.306Z,99.52
2023-03-12T04:30:22.322Z,99.88
2023-03-12T04:31:22.375Z,99.99
2023-03-12T04:32:22.289Z,99.99
2023-03-12T04:33:22.283Z,99.99
2023-03-12T04:34:22.268Z,99.99
2023-03-12T04:35:22.282Z,99.99
2023-03-12T04:36:22.254Z,99.99
2023-03-12T04:37:22.246Z,99.99
2023-03-12T04:38:22.244Z,99.73
2023-03-12T04:39:22.237Z,99.99
2023-03-12T04:40:22.253Z,99.99
2023-03-12T04:41:22.214Z,99.99
2023-03-12T04:42:22.210Z,99.99
2023-03-12T04:43:22.206Z,99.99
2023-03-12T04:44:22.204Z,99.99
2023-03-12T04:45:22.211Z,99.99
2023-03-12T04:46:22.230Z,99.99
2023-03-12T04:47:22.183Z,99.99
2023-03-12T04:48:22.170Z,99.99
2023-03-12T04:49:22.153Z,99.79
2023-03-12T04:50:22.186Z,99.79
2023-03-12T04:51:22.153Z,99.99
2023-03-12T04:52:22.140Z,99.99
2023-03-12T04:53:22.199Z,99.99
2023-03-12T04:54:22.127Z,99.99
2023-03-12T04:55:22.146Z,99.99
2023-03-12T04:56:22.115Z,99.69
2023-03-12T04:57:22.106Z,99.58
2023-03-12T04:58:22.098Z,99.05
2023-03-12T04:59:22.087Z,99.99
2023-03-12T05:00:22.109Z,99.90
2023-03-12T05:01:22.077Z,99.79
2023-03-12T05:02:22.071Z,99.96
2023-03-12T05:03:22.063Z,99.69
2023-03-12T05:04:22.055Z,99.90
2023-03-12T05:05:22.068Z,99.90
2023-03-12T05:06:22.056Z,99.74
2023-03-12T05:07:22.029Z,99.74
2023-03-12T05:08:22.032Z,99.96
2023-03-12T05:09:22.017Z,99.99
2023-03-12T05:10:22.028Z,99.74
2023-03-12T05:11:22.003Z,99.43
2023-03-12T05:12:21.994Z,99.11
2023-03-12T05:13:21.992Z,99.33
2023-03-12T05:14:21.976Z,99.33
2023-03-12T05:15:22.001Z,99.43
2023-03-12T05:16:22.028Z,99.33
2023-03-12T05:17:21.959Z,99.18
2023-03-12T05:18:21.955Z,99.33
2023-03-12T05:19:21.954Z,99.74
2023-03-12T05:20:21.984Z,99.74
2023-03-12T05:21:21.933Z,99.54
2023-03-12T05:22:21.914Z,99.33
2023-03-12T05:23:21.908Z,99.64
2023-03-12T05:24:21.909Z,99.01
2023-03-12T05:25:21.937Z,99.22
2023-03-12T05:26:21.903Z,99.07
2023-03-12T05:27:21.880Z,99.38
2023-03-12T05:28:21.870Z,99.11
2023-03-12T05:29:21.873Z,99.70
2023-03-12T05:30:21.880Z,99.38
2023-03-12T05:31:21.917Z,99.11
2023-03-12T05:32:21.888Z,99.60
2023-03-12T05:33:21.838Z,99.70
2023-03-12T05:34:21.818Z,99.38
2023-03-12T05:35:21.844Z,99.49
2023-03-12T05:36:21.821Z,99.28
2023-03-12T05:37:21.802Z,99.64
2023-03-12T05:38:21.797Z,98.97
2023-03-12T05:39:21.774Z,98.86
2023-03-12T05:40:22.806Z,99.49
2023-03-12T05:41:21.776Z,99.07
2023-03-12T05:42:21.765Z,99.64
2023-03-12T05:43:21.754Z,98.97
2023-03-12T05:44:21.759Z,98.86
2023-03-12T05:45:21.763Z,98.80
2023-03-12T05:46:21.733Z,98.80
2023-03-12T05:47:21.722Z,98.75
2023-03-12T05:48:21.720Z,99.54
2023-03-12T05:49:21.716Z,99.74
2023-03-12T05:50:21.745Z,99.22
2023-03-12T05:51:21.714Z,99.38
2023-03-12T05:52:21.692Z,99.18
2023-03-12T05:53:21.690Z,99.54
2023-03-12T05:54:21.672Z,99.54
2023-03-12T05:55:21.687Z,99.60
2023-03-12T05:56:21.662Z,99.28
2023-03-12T05:57:21.649Z,99.38
2023-03-12T05:58:21.645Z,99.07
2023-03-12T05:59:21.623Z,99.18
2023-03-12T06:00:22.656Z,99.70
2023-03-12T06:01:21.621Z,99.49
2023-03-12T06:02:21.716Z,99.60
2023-03-12T06:03:21.620Z,99.60
2023-03-12T06:04:21.599Z,99.38
2023-03-12T06:05:21.633Z,99.38
2023-03-12T06:06:21.581Z,99.18
2023-03-12T06:07:21.569Z,99.60
2023-03-12T06:08:21.567Z,99.24
2023-03-12T06:09:21.557Z,99.03
2023-03-12T06:10:21.587Z,98.82
2023-03-12T06:11:21.538Z,98.97
2023-03-12T06:12:21.546Z,98.82
2023-03-12T06:13:21.528Z,99.44
2023-03-12T06:14:21.514Z,98.71
2023-03-12T06:15:21.510Z,98.71
2023-03-12T06:16:21.617Z,99.51
2023-03-12T06:17:21.505Z,98.67
2023-03-12T06:18:21.490Z,98.77
2023-03-12T06:19:21.486Z,98.67
2023-03-12T06:20:21.498Z,98.25
2023-03-12T06:21:21.490Z,97.62
2023-03-12T06:22:21.460Z,98.10
2023-03-12T06:23:21.697Z,97.62
2023-03-12T06:24:22.448Z,97.41
2023-03-12T06:25:21.434Z,97.26
2023-03-12T06:26:21.466Z,97.26
2023-03-12T06:27:21.415Z,97.26
2023-03-12T06:28:21.414Z,97.16
2023-03-12T06:29:21.405Z,97.16
2023-03-12T06:30:21.411Z,97.53
2023-03-12T06:31:21.456Z,97.22
2023-03-12T06:32:21.409Z,97.63
2023-03-12T06:33:21.372Z,96.80
2023-03-12T06:34:21.371Z,96.17
2023-03-12T06:35:21.394Z,96.59
2023-03-12T06:36:21.367Z,96.06
2023-03-12T06:37:21.346Z,96.48
2023-03-12T06:38:21.338Z,96.23
2023-03-12T06:39:21.317Z,96.33
2023-03-12T06:40:22.318Z,96.12
2023-03-12T06:41:21.336Z,96.33
2023-03-12T06:42:21.303Z,96.29
2023-03-12T06:43:21.295Z,96.39
2023-03-12T06:44:21.286Z,95.66
2023-03-12T06:45:21.283Z,95.45
2023-03-12T06:46:21.326Z,95.87
2023-03-12T06:47:21.268Z,95.62
2023-03-12T06:48:21.266Z,95.51
2023-03-12T06:49:21.264Z,95.31
2023-03-12T06:50:21.244Z,94.99
2023-03-12T06:51:21.262Z,95.51
2023-03-12T06:52:21.226Z,95.31
2023-03-12T06:53:21.229Z,95.09
2023-03-12T06:54:21.217Z,95.31
2023-03-12T06:55:21.208Z,95.41
2023-03-12T06:56:21.223Z,95.41
2023-03-12T06:57:21.195Z,95.41
2023-03-12T06:58:21.187Z,95.41
2023-03-12T06:59:21.178Z,95.31
2023-03-12T07:00:21.172Z,94.99
2023-03-12T07:01:21.186Z,94.78
2023-03-12T07:02:21.236Z,94.26
2023-03-12T07:03:21.147Z,94.74
2023-03-12T07:04:21.146Z,94.64
2023-03-12T07:05:21.171Z,94.11
2023-03-12T07:06:21.154Z,94.17
2023-03-12T07:07:21.121Z,94.55
2023-03-12T07:08:21.114Z,94.02
2023-03-12T07:09:21.105Z,94.19
2023-03-12T07:10:21.098Z,93.46
2023-03-12T07:11:21.116Z,92.69
2023-03-12T07:12:21.090Z,92.06
2023-03-12T07:13:21.080Z,91.96
2023-03-12T07:14:21.066Z,91.96
2023-03-12T07:15:21.059Z,91.18
2023-03-12T07:16:21.111Z,91.46
2023-03-12T07:17:21.064Z,91.25
2023-03-12T07:18:21.043Z,90.06
2023-03-12T07:19:21.035Z,89.85
2023-03-12T07:20:21.028Z,90.06
2023-03-12T07:21:21.044Z,89.50
2023-03-12T07:22:21.006Z,89.60
2023-03-12T07:23:21.006Z,88.93
2023-03-12T07:24:20.997Z,88.17
2023-03-12T07:25:21.012Z,88.27
2023-03-12T07:26:21.043Z,87.40
2023-03-12T07:27:20.968Z,87.40
2023-03-12T07:28:20.961Z,86.77
2023-03-12T07:29:20.966Z,86.57
2023-03-12T07:30:20.944Z,86.35
2023-03-12T07:31:21.012Z,86.46
2023-03-12T07:32:20.969Z,86.57
2023-03-12T07:33:21.006Z,86.35
2023-03-12T07:34:21.030Z,86.52
2023-03-12T07:35:21.013Z,86.21
2023-03-12T07:36:21.024Z,85.44
2023-03-12T07:37:20.893Z,84.37
2023-03-12T07:38:20.913Z,84.16
2023-03-12T07:39:20.888Z,84.37
2023-03-12T07:40:20.865Z,84.51
2023-03-12T07:41:20.999Z,84.03
2023-03-12T07:42:20.967Z,84.38
2023-03-12T07:43:21.883Z,84.69
2023-03-12T07:44:21.835Z,84.27
2023-03-12T07:45:20.864Z,85.00
2023-03-12T07:46:20.884Z,84.27
2023-03-12T07:47:23.959Z,84.38
2023-03-12T07:48:21.859Z,84.52
2023-03-12T07:49:20.798Z,85.04
2023-03-12T07:50:20.881Z,84.38
2023-03-12T07:51:20.807Z,84.48
2023-03-12T07:52:20.854Z,84.48
2023-03-12T07:53:20.761Z,83.92
2023-03-12T07:54:20.914Z,83.72
2023-03-12T07:55:20.844Z,84.44
2023-03-12T07:56:20.851Z,83.72
2023-03-12T07:57:20.753Z,83.20
2023-03-12T07:58:20.799Z,83.51
2023-03-12T07:59:21.760Z,83.51
2023-03-12T08:00:20.759Z,84.44
2023-03-12T08:01:20.768Z,84.30
2023-03-12T08:02:20.801Z,84.55
2023-03-12T08:03:20.992Z,83.58
2023-03-12T08:04:20.733Z,82.43
2023-03-12T08:05:20.673Z,82.29
2023-03-12T08:06:20.813Z,82.91
2023-03-12T08:07:20.744Z,82.50
2023-03-12T08:08:20.660Z,81.56
2023-03-12T08:09:20.644Z,81.15
2023-03-12T08:10:20.698Z,81.25
2023-03-12T08:11:20.646Z,81.18
2023-03-12T08:12:20.644Z,81.49
2023-03-12T08:13:20.675Z,82.12
2023-03-12T08:14:20.610Z,81.91
2023-03-12T08:15:20.588Z,82.32
2023-03-12T08:16:20.680Z,82.95
2023-03-12T08:17:20.574Z,82.32
2023-03-12T08:18:20.568Z,82.95
2023-03-12T08:19:20.562Z,82.12
2023-03-12T08:20:20.557Z,82.84
2023-03-12T08:21:20.567Z,82.53
2023-03-12T08:22:20.539Z,82.53
2023-03-12T08:23:20.532Z,82.53
2023-03-12T08:24:20.529Z,82.84
2023-03-12T08:25:20.556Z,82.53
2023-03-12T08:26:20.533Z,80.87
2023-03-12T08:27:20.494Z,81.32
2023-03-12T08:28:20.488Z,81.39
2023-03-12T08:29:20.487Z,82.12
2023-03-12T08:30:20.479Z,81.81
2023-03-12T08:31:20.515Z,81.60
2023-03-12T08:32:20.557Z,81.70
2023-03-12T08:33:20.458Z,81.39
2023-03-12T08:34:20.450Z,81.35
2023-03-12T08:35:20.439Z,80.52
2023-03-12T08:36:22.378Z,80.00
2023-03-12T08:37:21.426Z,80.18
2023-03-12T08:38:20.421Z,80.69
2023-03-12T08:39:20.408Z,80.04
2023-03-12T08:40:20.405Z,78.75
2023-03-12T08:41:20.423Z,78.13
2023-03-12T08:42:20.392Z,77.78
2023-03-12T08:43:20.390Z,77.78
2023-03-12T08:44:20.390Z,78.55
2023-03-12T08:45:20.373Z,78.72
2023-03-12T08:46:20.420Z,79.03
2023-03-12T08:47:20.352Z,79.34
2023-03-12T08:48:20.339Z,78.82
2023-03-12T08:49:20.332Z,80.00
2023-03-12T08:50:20.330Z,80.21
2023-03-12T08:51:20.352Z,80.62
2023-03-12T08:52:20.319Z,78.65
2023-03-12T08:53:20.313Z,79.48
2023-03-12T08:54:20.300Z,79.06
2023-03-12T08:55:20.292Z,79.34
2023-03-12T08:56:20.324Z,76.68
2023-03-12T08:57:20.280Z,77.09
2023-03-12T08:58:20.265Z,77.92
2023-03-12T08:59:20.261Z,78.03
2023-03-12T09:00:20.249Z,78.55
2023-03-12T09:01:20.269Z,78.72
2023-03-12T09:02:20.242Z,78.20
2023-03-12T09:03:20.259Z,77.02
2023-03-12T09:04:20.295Z,77.09
2023-03-12T09:05:20.213Z,77.23
2023-03-12T09:06:20.232Z,77.40
2023-03-12T09:07:20.204Z,76.74
2023-03-12T09:08:20.193Z,76.19
2023-03-12T09:09:20.181Z,77.01
2023-03-12T09:10:20.178Z,75.98
2023-03-12T09:11:20.168Z,74.81
2023-03-12T09:12:20.185Z,76.09
2023-03-12T09:13:20.156Z,75.53
2023-03-12T09:15:00.976Z,74.53
2023-03-12T09:15:22.133Z,75.88
2023-03-12T09:16:20.144Z,75.71
2023-03-12T09:17:20.146Z,76.02
2023-03-12T09:18:20.116Z,77.57
2023-03-12T09:19:20.103Z,76.98
2023-03-12T09:20:20.109Z,77.40
2023-03-12T09:21:20.084Z,77.09
2023-03-12T09:22:20.099Z,78.27
2023-03-12T09:23:20.070Z,78.16
2023-03-12T09:24:20.063Z,77.95
2023-03-12T09:25:20.051Z,78.23
2023-03-12T09:26:20.039Z,78.16
2023-03-12T09:27:20.059Z,77.09
2023-03-12T09:28:20.026Z,76.98
2023-03-12T09:29:20.018Z,75.84
2023-03-12T09:30:20.122Z,75.95
2023-03-12T09:31:20.051Z,76.57
2023-03-12T09:32:20.058Z,76.91
2023-03-12T09:33:19.993Z,75.78
2023-03-12T09:34:19.982Z,73.81
2023-03-12T09:35:19.970Z,76.12
2023-03-12T09:36:19.957Z,76.12
2023-03-12T09:37:22.393Z,76.02
2023-03-12T09:38:19.944Z,75.67
2023-03-12T09:39:19.935Z,75.57
2023-03-12T09:40:19.928Z,74.74
2023-03-12T09:41:19.908Z,75.15
2023-03-12T09:42:20.939Z,74.84
2023-03-12T09:43:19.910Z,75.88
2023-03-12T09:44:19.897Z,76.19
2023-03-12T09:45:19.893Z,77.01
2023-03-12T09:46:19.933Z,75.71
2023-03-12T09:47:19.901Z,75.60
2023-03-12T09:48:19.865Z,75.78
2023-03-12T09:49:19.868Z,75.81
2023-03-12T09:50:19.850Z,76.12
2023-03-12T09:51:19.840Z,75.67
2023-03-12T09:52:19.857Z,75.98
2023-03-12T09:53:19.829Z,74.84
2023-03-12T09:54:19.819Z,75.78
2023-03-12T09:55:19.817Z,75.71
2023-03-12T09:56:19.800Z,75.81
2023-03-12T09:57:19.831Z,75.09
2023-03-12T09:58:19.787Z,74.95
2023-03-12T09:59:19.776Z,74.32
2023-03-12T10:00:19.778Z,74.84
2023-03-12T10:01:19.764Z,74.32
2023-03-12T10:02:19.784Z,75.98
2023-03-12T10:03:19.810Z,75.88
2023-03-12T10:04:19.781Z,75.78
2023-03-12T10:05:19.787Z,75.78
2023-03-12T10:06:19.781Z,76.09
2023-03-12T10:07:19.743Z,75.67
2023-03-12T10:08:26.272Z,75.78
2023-03-12T10:09:21.701Z,75.81
2023-03-12T10:10:19.698Z,76.02
2023-03-12T10:11:19.711Z,76.32
2023-03-12T10:12:19.734Z,76.43
2023-03-12T10:13:19.676Z,77.47
2023-03-12T10:14:23.856Z,76.53
2023-03-12T10:15:20.652Z,78.19
2023-03-12T10:16:19.681Z,77.95
2023-03-12T10:17:19.661Z,79.09
2023-03-12T10:18:19.707Z,78.88
2023-03-12T10:19:19.621Z,79.40
2023-03-12T10:20:19.616Z,78.88
2023-03-12T10:21:19.604Z,78.12
2023-03-12T10:22:19.625Z,78.26
2023-03-12T10:23:19.581Z,77.60
2023-03-12T10:24:20.583Z,77.60
2023-03-12T10:25:19.595Z,77.50
2023-03-12T10:26:19.573Z,77.50
2023-03-12T10:27:19.585Z,77.95
2023-03-12T10:28:19.559Z,78.12
2023-03-12T10:29:19.544Z,79.40
2023-03-12T10:30:19.541Z,80.33
2023-03-12T10:31:19.577Z,79.71
2023-03-12T10:32:19.575Z,80.05
2023-03-12T10:33:19.515Z,80.05
2023-03-12T10:34:19.507Z,81.30
2023-03-12T10:35:21.785Z,82.44
2023-03-12T10:36:20.492Z,81.71
2023-03-12T10:37:19.515Z,80.64
2023-03-12T10:38:19.481Z,80.64
2023-03-12T10:39:19.469Z,80.85
2023-03-12T10:40:19.486Z,81.16
2023-03-12T10:41:19.452Z,80.64
2023-03-12T10:42:19.503Z,81.40
2023-03-12T10:43:19.446Z,82.54
2023-03-12T10:44:19.435Z,82.17
2023-03-12T10:45:19.424Z,81.30
2023-03-12T10:46:19.439Z,81.82
2023-03-12T10:47:19.447Z,82.23
2023-03-12T10:48:19.400Z,82.86
2023-03-12T10:49:19.391Z,83.06
2023-03-12T10:50:19.381Z,82.29
2023-03-12T10:51:20.392Z,82.65
2023-03-12T10:52:19.368Z,82.65
2023-03-12T10:53:19.386Z,82.95
2023-03-12T10:54:19.354Z,83.16
2023-03-12T10:55:19.352Z,83.78
2023-03-12T10:56:19.363Z,82.92
2023-03-12T10:57:19.370Z,83.06
2023-03-12T10:58:19.325Z,84.16
2023-03-12T10:59:19.327Z,84.88
2023-03-12T11:00:19.310Z,84.88
2023-03-12T11:01:19.346Z,86.17
2023-03-12T11:02:19.302Z,86.17
2023-03-12T11:03:19.329Z,86.27
2023-03-12T11:04:19.299Z,87.41
2023-03-12T11:05:19.283Z,87.62
2023-03-12T11:06:19.311Z,87.82
2023-03-12T11:07:19.259Z,87.93
2023-03-12T11:08:19.320Z,88.03
2023-03-12T11:09:19.233Z,88.03
2023-03-12T11:10:19.246Z,88.79
2023-03-12T11:11:19.225Z,89.21
2023-03-12T11:12:19.215Z,89.62
2023-03-12T11:13:19.234Z,88.90
2023-03-12T11:14:19.244Z,89.42
2023-03-12T11:15:19.200Z,90.14
2023-03-12T11:16:19.266Z,90.50
2023-03-12T11:17:19.179Z,91.53
2023-03-12T11:18:19.200Z,91.43
2023-03-12T11:19:19.164Z,91.95
2023-03-12T11:20:19.154Z,91.33
2023-03-12T11:21:19.151Z,92.16
2023-03-12T11:22:19.134Z,91.91
2023-03-12T11:23:19.157Z,91.74
2023-03-12T11:24:19.120Z,92.05
2023-03-12T11:25:19.113Z,91.12
2023-03-12T11:26:19.103Z,91.74
2023-03-12T11:27:19.099Z,92.30
2023-03-12T11:28:19.142Z,93.13
2023-03-12T11:29:19.130Z,93.40
2023-03-12T11:30:19.096Z,93.75
2023-03-12T11:31:19.157Z,93.85
2023-03-12T11:32:19.114Z,94.06
2023-03-12T11:33:19.071Z,94.68
2023-03-12T11:34:19.042Z,94.21
2023-03-12T11:35:19.063Z,95.20
2023-03-12T11:36:19.026Z,94.63
2023-03-12T11:37:19.026Z,95.04
2023-03-12T11:38:19.039Z,95.00
2023-03-12T11:39:19.009Z,95.72
2023-03-12T11:40:19.001Z,95.10
2023-03-12T11:41:18.999Z,95.41
2023-03-12T11:42:18.998Z,95.62
2023-03-12T11:43:29.247Z,95.10
2023-03-12T11:44:20.970Z,95.93
2023-03-12T11:45:18.963Z,96.14
2023-03-12T11:46:18.983Z,95.72
2023-03-12T11:47:19.004Z,95.41
2023-03-12T11:48:19.001Z,95.72
2023-03-12T11:49:18.931Z,95.78
2023-03-12T11:50:18.921Z,95.99
2023-03-12T11:51:18.917Z,96.41
2023-03-12T11:52:18.937Z,96.20
2023-03-12T11:53:18.923Z,96.41
2023-03-12T11:54:18.887Z,96.24
2023-03-12T11:55:18.891Z,96.61
2023-03-12T11:56:18.876Z,97.17
2023-03-12T11:57:18.872Z,97.17
2023-03-12T11:58:18.890Z,96.86
2023-03-12T11:59:18.853Z,96.14
2023-03-12T12:00:19.906Z,96.34
2023-03-12T12:01:18.837Z,96.97
2023-03-12T12:02:18.881Z,97.07
2023-03-12T12:03:18.874Z,97.43
2023-03-12T12:04:18.821Z,96.97
2023-03-12T12:05:18.810Z,98.11
2023-03-12T12:06:18.811Z,97.90
2023-03-12T12:07:18.798Z,98.42
2023-03-12T12:08:18.818Z,98.42
2023-03-12T12:09:18.778Z,98.52
2023-03-12T12:10:18.769Z,98.21
2023-03-12T12:11:18.767Z,99.00
2023-03-12T12:12:18.750Z,98.90
2023-03-12T12:13:18.743Z,98.38
2023-03-12T12:14:18.779Z,98.27
2023-03-12T12:15:18.732Z,99.05
2023-03-12T12:16:18.744Z,98.90
2023-03-12T12:17:18.721Z,98.48
2023-03-12T12:18:18.715Z,99.21
2023-03-12T12:19:18.740Z,98.64
2023-03-12T12:20:18.801Z,98.90
2023-03-12T12:21:18.688Z,98.54
2023-03-12T12:22:18.674Z,98.54
2023-03-12T12:23:18.689Z,98.90
2023-03-12T12:24:18.678Z,98.38
2023-03-12T12:25:18.654Z,98.43
2023-03-12T12:26:18.640Z,98.43
2023-03-12T12:27:18.634Z,98.85
2023-03-12T12:28:18.633Z,98.85
2023-03-12T12:29:18.647Z,98.58
2023-03-12T12:30:18.660Z,98.79
2023-03-12T12:31:18.636Z,98.33
2023-03-12T12:32:18.603Z,98.69
2023-03-12T12:33:18.581Z,98.58
2023-03-12T12:34:19.612Z,98.95
2023-03-12T12:35:18.569Z,98.85
2023-03-12T12:36:18.568Z,98.74
2023-03-12T12:37:18.556Z,98.43
2023-03-12T12:38:18.544Z,98.91
2023-03-12T12:39:18.576Z,98.43
2023-03-12T12:40:18.599Z,98.70
2023-03-12T12:41:18.530Z,98.39
2023-03-12T12:42:18.522Z,98.60
2023-03-12T12:43:18.509Z,98.12
2023-03-12T12:44:18.532Z,98.74
2023-03-12T12:45:18.503Z,98.85
2023-03-12T12:46:18.499Z,98.64
2023-03-12T12:47:18.506Z,98.95
2023-03-12T12:48:18.471Z,98.70
2023-03-12T12:49:18.484Z,98.60
2023-03-12T12:50:18.600Z,98.70
2023-03-12T12:51:18.446Z,98.54
2023-03-12T12:52:18.436Z,98.12